Time;durP1;ratioP1;P1;durP2;ratioP2;P2;SDS_P1;SDS_P2;PMS_P1;PMS_P2;Temp;Humidity;BMP_temperature;BMP_pressure;BME280_temperature;BME280_humidity;BME280_pressure;Samples;Min_cycle;Max_cycle;Signal;HPM_P1;HPM_P2
2023/05/28 00:01:40;;;;;;;3.90;3.30;;;;;;;;;;5009858;28;20217;-28
2023/05/28 00:04:08;;;;;;;4.97;3.30;;;;;;;;;;5021625;28;20688;-27
2023/05/28 00:06:36;;;;;;;5.10;3.17;;;;;;;;;;5032164;28;20224;-25
2023/05/28 00:09:03;;;;;;;6.13;2.83;;;;;;;;;;5032467;28;20239;-30
2023/05/28 00:11:30;;;;;;;4.27;3.20;;;;;;;;;;5005121;28;20215;-25
2023/05/28 00:13:57;;;;;;;5.03;3.10;;;;;;;;;;5019829;28;20204;-25
2023/05/28 00:16:25;;;;;;;5.97;3.23;;;;;;;;;;5016442;28;20229;-27
2023/05/28 00:18:52;;;;;;;4.73;3.47;;;;;;;;;;5023142;28;20204;-29
2023/05/28 00:21:20;;;;;;;5.40;3.17;;;;;;;;;;5032053;28;20205;-25
2023/05/28 00:23:47;;;;;;;7.07;3.30;;;;;;;;;;5032092;28;20208;-27
2023/05/28 00:26:14;;;;;;;7.30;3.60;;;;;;;;;;4998341;28;20252;-26
2023/05/28 00:28:41;;;;;;;5.90;2.97;;;;;;;;;;5016082;28;20216;-27
2023/05/28 00:31:08;;;;;;;6.63;3.50;;;;;;;;;;5006968;28;20218;-29
2023/05/28 00:33:36;;;;;;;8.97;2.93;;;;;;;;;;5007575;28;20204;-27
2023/05/28 00:36:03;;;;;;;4.67;3.53;;;;;;;;;;5030581;28;20710;-25
2023/05/28 00:38:31;;;;;;;4.83;3.00;;;;;;;;;;5025413;28;20615;-28
2023/05/28 00:40:58;;;;;;;3.80;3.10;;;;;;;;;;5008913;28;20221;-26
2023/05/28 00:43:25;;;;;;;4.33;2.80;;;;;;;;;;5023075;28;20237;-29
2023/05/28 00:45:53;;;;;;;5.23;2.97;;;;;;;;;;5022174;28;20220;-25
2023/05/28 00:48:20;;;;;;;9.50;3.37;;;;;;;;;;5010973;28;20222;-30
2023/05/28 00:50:47;;;;;;;6.17;2.90;;;;;;;;;;5020225;28;20219;-30
2023/05/28 00:53:15;;;;;;;5.30;3.50;;;;;;;;;;5031718;28;20211;-25
2023/05/28 00:55:43;;;;;;;7.40;3.60;;;;;;;;;;5020954;28;20226;-28
2023/05/28 00:58:11;;;;;;;5.53;3.00;;;;;;;;;;5006952;28;20204;-27
2023/05/28 01:00:39;;;;;;;4.63;2.90;;;;;;;;;;5023058;28;20199;-29
2023/05/28 01:03:06;;;;;;;8.17;3.33;;;;;;;;;;5015723;28;20402;-27
2023/05/28 01:05:34;;;;;;;10.10;3.23;;;;;;;;;;5016888;28;20219;-28
2023/05/28 01:08:01;;;;;;;5.33;3.40;;;;;;;;;;5032361;28;20298;-28
2023/05/28 01:10:28;;;;;;;5.00;3.07;;;;;;;;;;5011592;28;20227;-27
2023/05/28 01:12:57;;;;;;;4.10;3.07;;;;;;;;;;5020724;28;20215;-27
2023/05/28 01:15:24;;;;;;;5.07;3.27;;;;;;;;;;5029219;28;20223;-26
2023/05/28 01:17:55;;;;;;;5.30;3.00;;;;;;;;;;5007962;28;20223;-27
2023/05/28 01:20:23;;;;;;;5.53;3.10;;;;;;;;;;5019119;28;20215;-26
2023/05/28 01:22:54;;;;;;;4.97;3.30;;;;;;;;;;5011274;28;20499;-25
2023/05/28 01:25:23;;;;;;;6.37;3.73;;;;;;;;;;5004716;28;20307;-27
2023/05/28 01:27:50;;;;;;;5.60;3.67;;;;;;;;;;5015888;28;20212;-25
2023/05/28 01:30:17;;;;;;;3.80;2.63;;;;;;;;;;5017943;28;20223;-28
2023/05/28 01:32:44;;;;;;;5.03;2.97;;;;;;;;;;5003893;28;20202;-28
2023/05/28 01:35:12;;;;;;;4.30;2.87;;;;;;;;;;5002695;28;20211;-29
2023/05/28 01:37:41;;;;;;;5.10;3.40;;;;;;;;;;5011073;28;20219;-25
2023/05/28 01:40:09;;;;;;;7.03;3.37;;;;;;;;;;5006589;28;20200;-27
2023/05/28 01:42:38;;;;;;;5.03;3.67;;;;;;;;;;5011173;28;20203;-26
2023/05/28 01:45:06;;;;;;;6.23;3.73;;;;;;;;;;5021199;28;20207;-26
2023/05/28 01:47:33;;;;;;;5.90;3.53;;;;;;;;;;5010129;28;20209;-27
2023/05/28 01:50:01;;;;;;;5.23;3.47;;;;;;;;;;5028978;28;20229;-29
2023/05/28 01:52:28;;;;;;;4.67;3.37;;;;;;;;;;5030571;28;20211;-27
2023/05/28 01:54:55;;;;;;;6.97;3.57;;;;;;;;;;5030443;28;20214;-27
2023/05/28 01:57:22;;;;;;;4.77;2.70;;;;;;;;;;5009827;28;20231;-27
2023/05/28 01:59:50;;;;;;;4.83;3.23;;;;;;;;;;5016232;28;20199;-27
2023/05/28 02:02:19;;;;;;;4.93;3.10;;;;;;;;;;5008023;28;20331;-28
2023/05/28 02:04:46;;;;;;;3.70;3.30;;;;;;;;;;5019419;28;20210;-28
2023/05/28 02:07:13;;;;;;;5.33;3.43;;;;;;;;;;5010257;28;20227;-27
2023/05/28 02:09:41;;;;;;;4.07;3.13;;;;;;;;;;5009961;28;20246;-26
2023/05/28 02:12:08;;;;;;;5.37;3.13;;;;;;;;;;4989271;28;20285;-25
2023/05/28 02:14:35;;;;;;;5.63;3.70;;;;;;;;;;5012889;28;20204;-27
2023/05/28 02:17:04;;;;;;;4.73;3.40;;;;;;;;;;5007293;28;20228;-26
2023/05/28 02:19:32;;;;;;;4.93;2.93;;;;;;;;;;5025525;28;20198;-28
2023/05/28 02:21:59;;;;;;;5.90;3.47;;;;;;;;;;5011881;28;20203;-30
2023/05/28 02:24:27;;;;;;;4.77;3.20;;;;;;;;;;5004297;28;20274;-28
2023/05/28 02:26:54;;;;;;;5.23;3.10;;;;;;;;;;5006958;28;20234;-28
2023/05/28 02:29:21;;;;;;;7.27;3.43;;;;;;;;;;5009924;28;20215;-26
2023/05/28 02:31:48;;;;;;;6.27;3.30;;;;;;;;;;5004693;28;20226;-26
2023/05/28 02:34:17;;;;;;;4.57;3.37;;;;;;;;;;5007390;28;20207;-27
2023/05/28 02:36:44;;;;;;;6.13;3.00;;;;;;;;;;5009746;28;20234;-24
2023/05/28 02:39:11;;;;;;;5.27;3.10;;;;;;;;;;5004911;28;20218;-28
2023/05/28 02:41:38;;;;;;;4.03;3.43;;;;;;;;;;4994498;28;20215;-25
2023/05/28 02:44:05;;;;;;;4.90;3.30;;;;;;;;;;5019181;28;20221;-29
2023/05/28 02:55:29;;;;;;;7.17;3.23;;;;;;;;;;5090195;23;20235;-27
2023/05/28 02:57:56;;;;;;;3.87;2.93;;;;;;;;;;4996639;28;20449;-23
2023/05/28 03:00:23;;;;;;;4.73;3.13;;;;;;;;;;5001725;28;20195;-27
2023/05/28 03:02:50;;;;;;;5.87;3.43;;;;;;;;;;4998793;28;20208;-28
2023/05/28 03:05:17;;;;;;;5.00;3.30;;;;;;;;;;5010363;28;20207;-27
2023/05/28 03:07:44;;;;;;;4.57;3.33;;;;;;;;;;5009867;28;20222;-26
2023/05/28 03:10:11;;;;;;;7.77;3.30;;;;;;;;;;4995691;28;20570;-29
2023/05/28 03:12:40;;;;;;;4.60;3.13;;;;;;;;;;5004400;28;20203;-27
2023/05/28 03:15:08;;;;;;;3.33;2.80;;;;;;;;;;5008744;28;20210;-26
2023/05/28 03:17:35;;;;;;;4.77;3.20;;;;;;;;;;4995157;28;20203;-28
2023/05/28 03:20:02;;;;;;;4.93;3.37;;;;;;;;;;4998135;28;20195;-28
2023/05/28 03:22:29;;;;;;;3.57;3.20;;;;;;;;;;4989541;28;20207;-26
2023/05/28 03:24:57;;;;;;;4.87;3.00;;;;;;;;;;4989524;28;20215;-29
2023/05/28 03:27:24;;;;;;;4.37;3.43;;;;;;;;;;4994494;28;20788;-28
2023/05/28 03:29:52;;;;;;;4.37;2.90;;;;;;;;;;4997305;28;20524;-26
2023/05/28 03:32:19;;;;;;;3.73;2.90;;;;;;;;;;4991151;28;20199;-27
2023/05/28 03:34:46;;;;;;;4.43;2.97;;;;;;;;;;4989489;28;20204;-26
2023/05/28 03:37:13;;;;;;;5.53;2.90;;;;;;;;;;4989973;28;20227;-28
2023/05/28 03:39:40;;;;;;;3.83;2.77;;;;;;;;;;4995957;28;20210;-26
2023/05/28 03:42:08;;;;;;;4.50;3.13;;;;;;;;;;4998600;28;20204;-27
2023/05/28 03:44:35;;;;;;;4.17;3.30;;;;;;;;;;5006663;28;20216;-25
2023/05/28 03:47:03;;;;;;;6.57;3.20;;;;;;;;;;5000223;28;20235;-24
2023/05/28 03:49:30;;;;;;;4.80;3.10;;;;;;;;;;5000194;28;20346;-28
2023/05/28 03:51:58;;;;;;;4.87;2.90;;;;;;;;;;5011993;28;20207;-26
2023/05/28 03:54:25;;;;;;;6.17;3.17;;;;;;;;;;5011033;28;20211;-26
2023/05/28 03:56:52;;;;;;;4.63;3.10;;;;;;;;;;4998225;28;20224;-26
2023/05/28 03:59:19;;;;;;;5.10;3.00;;;;;;;;;;5000152;28;20210;-25
2023/05/28 04:01:46;;;;;;;6.17;3.70;;;;;;;;;;4996244;28;20211;-25
2023/05/28 04:04:15;;;;;;;3.43;2.83;;;;;;;;;;5007086;28;20200;-27
2023/05/28 04:06:42;;;;;;;4.77;3.27;;;;;;;;;;4991871;28;20220;-23
2023/05/28 04:09:09;;;;;;;3.47;2.70;;;;;;;;;;4992473;28;20208;-26
2023/05/28 04:11:37;;;;;;;4.23;3.20;;;;;;;;;;4997285;28;20227;-24
2023/05/28 04:14:04;;;;;;;5.63;2.90;;;;;;;;;;4992266;28;20219;-25
2023/05/28 04:16:31;;;;;;;6.13;2.90;;;;;;;;;;4999854;28;20261;-26
2023/05/28 04:19:00;;;;;;;4.57;2.80;;;;;;;;;;5003434;28;20214;-27
2023/05/28 04:21:29;;;;;;;3.70;2.77;;;;;;;;;;5011203;28;20199;-25
2023/05/28 04:23:56;;;;;;;5.53;3.40;;;;;;;;;;5011762;28;20234;-25
2023/05/28 04:26:24;;;;;;;3.57;2.67;;;;;;;;;;5004830;28;20227;-25
2023/05/28 04:28:52;;;;;;;5.03;3.27;;;;;;;;;;5003646;28;20215;-25
2023/05/28 04:31:20;;;;;;;3.90;3.10;;;;;;;;;;4995388;28;20228;-26
2023/05/28 04:33:47;;;;;;;5.93;3.70;;;;;;;;;;5001852;28;20211;-26
2023/05/28 04:36:14;;;;;;;5.37;2.97;;;;;;;;;;5007337;28;20231;-28
2023/05/28 04:38:42;;;;;;;5.03;3.30;;;;;;;;;;5015220;28;20389;-27
2023/05/28 04:41:13;;;;;;;7.83;3.40;;;;;;;;;;5007197;28;20207;-28
2023/05/28 04:43:41;;;;;;;5.30;3.87;;;;;;;;;;5000354;28;20214;-29
2023/05/28 04:46:09;;;;;;;4.47;3.33;;;;;;;;;;5005178;28;20318;-25
2023/05/28 04:48:36;;;;;;;4.53;2.97;;;;;;;;;;5009130;28;20235;-27
2023/05/28 04:51:05;;;;;;;7.20;3.20;;;;;;;;;;5013865;28;20293;-25
2023/05/28 04:53:33;;;;;;;5.73;2.97;;;;;;;;;;5014973;28;20211;-27
2023/05/28 04:56:02;;;;;;;5.07;3.07;;;;;;;;;;5008483;28;20281;-28
2023/05/28 04:58:29;;;;;;;4.47;2.87;;;;;;;;;;5000230;28;20216;-26
2023/05/28 05:00:56;;;;;;;3.47;3.00;;;;;;;;;;5005887;28;20258;-25
2023/05/28 05:03:23;;;;;;;4.70;3.40;;;;;;;;;;4998495;28;20199;-23
2023/05/28 05:05:50;;;;;;;4.10;3.20;;;;;;;;;;4996166;28;20234;-27
2023/05/28 05:08:17;;;;;;;3.83;3.20;;;;;;;;;;4995145;28;20296;-27
2023/05/28 05:10:45;;;;;;;3.97;3.53;;;;;;;;;;4996278;28;20231;-23
2023/05/28 05:13:13;;;;;;;3.80;3.23;;;;;;;;;;4994606;28;20204;-26
2023/05/28 05:15:40;;;;;;;5.77;3.70;;;;;;;;;;4998464;28;20223;-24
2023/05/28 05:18:07;;;;;;;6.40;3.17;;;;;;;;;;5002680;28;20220;-28
2023/05/28 05:20:34;;;;;;;6.80;3.40;;;;;;;;;;5002767;28;20208;-26
2023/05/28 05:23:03;;;;;;;4.13;2.83;;;;;;;;;;4994156;28;20212;-27
2023/05/28 05:25:30;;;;;;;6.67;3.33;;;;;;;;;;4991860;28;20306;-24
2023/05/28 05:27:57;;;;;;;5.43;3.57;;;;;;;;;;5004514;28;20207;-27
2023/05/28 05:30:25;;;;;;;4.80;3.27;;;;;;;;;;5012449;28;20215;-25
2023/05/28 05:32:52;;;;;;;5.90;3.27;;;;;;;;;;5003853;28;20207;-28
2023/05/28 05:35:20;;;;;;;4.83;3.43;;;;;;;;;;5007337;28;20226;-26
2023/05/28 05:37:47;;;;;;;6.07;3.50;;;;;;;;;;5014615;28;20245;-28
2023/05/28 05:40:14;;;;;;;6.07;3.73;;;;;;;;;;5005124;28;20524;-27
2023/05/28 05:42:41;;;;;;;4.67;2.97;;;;;;;;;;5013331;28;20215;-23
2023/05/28 05:45:09;;;;;;;7.13;3.40;;;;;;;;;;5013866;28;20208;-27
2023/05/28 05:47:38;;;;;;;4.63;3.50;;;;;;;;;;5007919;28;20286;-25
2023/05/28 05:50:06;;;;;;;7.00;3.17;;;;;;;;;;5003030;28;20239;-26
2023/05/28 05:52:33;;;;;;;7.33;3.90;;;;;;;;;;4994301;28;20222;-24
2023/05/28 05:55:00;;;;;;;5.77;3.60;;;;;;;;;;4994097;28;20216;-28
2023/05/28 05:57:27;;;;;;;8.50;3.90;;;;;;;;;;4994208;28;20208;-25
2023/05/28 05:59:54;;;;;;;3.47;3.17;;;;;;;;;;5003171;28;20216;-25
2023/05/28 06:02:21;;;;;;;7.00;3.50;;;;;;;;;;5000250;28;20255;-27
2023/05/28 06:04:50;;;;;;;6.70;3.30;;;;;;;;;;5002041;28;20219;-26
2023/05/28 06:07:17;;;;;;;4.63;3.13;;;;;;;;;;5013582;28;20236;-27
2023/05/28 06:09:45;;;;;;;5.93;3.63;;;;;;;;;;5013393;28;20207;-25
2023/05/28 06:12:12;;;;;;;6.10;3.20;;;;;;;;;;5003968;28;20225;-26
2023/05/28 06:14:40;;;;;;;5.63;3.40;;;;;;;;;;5008642;28;20214;-25
2023/05/28 06:17:09;;;;;;;6.50;3.77;;;;;;;;;;5001020;28;20224;-27
2023/05/28 06:19:36;;;;;;;6.57;3.37;;;;;;;;;;5000164;28;20286;-26
2023/05/28 06:22:05;;;;;;;6.00;3.57;;;;;;;;;;5013465;28;20202;-25
2023/05/28 06:24:32;;;;;;;5.97;2.97;;;;;;;;;;5002944;28;20219;-25
2023/05/28 06:26:59;;;;;;;4.43;3.30;;;;;;;;;;4995025;28;20236;-24
2023/05/28 06:29:26;;;;;;;5.33;3.37;;;;;;;;;;5013073;28;20214;-28
2023/05/28 06:31:53;;;;;;;5.30;3.10;;;;;;;;;;5007118;28;20258;-25
2023/05/28 06:34:20;;;;;;;4.13;2.83;;;;;;;;;;5002350;28;20204;-28
2023/05/28 06:36:48;;;;;;;6.00;3.50;;;;;;;;;;5013107;28;20220;-27
2023/05/28 06:39:17;;;;;;;5.73;2.93;;;;;;;;;;5007005;28;20200;-27
2023/05/28 06:41:44;;;;;;;6.17;3.17;;;;;;;;;;5001166;28;20220;-26
2023/05/28 06:44:11;;;;;;;10.07;3.50;;;;;;;;;;5011725;28;20208;-27
2023/05/28 06:46:38;;;;;;;7.20;3.43;;;;;;;;;;5002396;28;20225;-26
2023/05/28 06:49:06;;;;;;;6.73;3.47;;;;;;;;;;4994378;28;20246;-26
2023/05/28 06:51:33;;;;;;;6.07;3.37;;;;;;;;;;5007382;28;20225;-27
2023/05/28 06:54:00;;;;;;;5.23;3.00;;;;;;;;;;5007885;28;20213;-26
2023/05/28 06:56:28;;;;;;;5.27;3.50;;;;;;;;;;4997894;28;20226;-29
2023/05/28 06:58:55;;;;;;;8.17;3.67;;;;;;;;;;5002831;28;20209;-27
2023/05/28 07:01:22;;;;;;;7.37;3.37;;;;;;;;;;4993069;28;20212;-28
2023/05/28 07:03:50;;;;;;;6.97;3.27;;;;;;;;;;4996744;28;20219;-28
2023/05/28 07:06:17;;;;;;;6.87;3.00;;;;;;;;;;5000607;28;20227;-28
2023/05/28 07:08:45;;;;;;;6.03;3.37;;;;;;;;;;4993422;28;20266;-26
2023/05/28 07:11:12;;;;;;;5.20;3.33;;;;;;;;;;4995465;28;20231;-28
2023/05/28 07:13:41;;;;;;;6.65;3.13;;;;;;;;;;5008737;28;20210;-26
2023/05/28 07:16:08;;;;;;;6.10;3.40;;;;;;;;;;4992699;28;20232;-29
2023/05/28 07:18:35;;;;;;;6.78;3.65;;;;;;;;;;5001583;28;20230;-26
2023/05/28 07:21:02;;;;;;;6.82;3.22;;;;;;;;;;4993211;28;20196;-27
2023/05/28 07:23:30;;;;;;;4.93;3.20;;;;;;;;;;4993003;28;20214;-29
2023/05/28 07:25:57;;;;;;;8.57;3.63;;;;;;;;;;4994001;28;20227;-26
2023/05/28 07:28:24;;;;;;;6.68;3.00;;;;;;;;;;5005042;28;20200;-30
2023/05/28 07:30:52;;;;;;;4.85;2.97;;;;;;;;;;4992880;28;20225;-27
2023/05/28 07:33:20;;;;;;;5.90;3.10;;;;;;;;;;4995185;28;20200;-27
2023/05/28 07:35:47;;;;;;;6.85;3.13;;;;;;;;;;5008498;28;20266;-29
2023/05/28 07:38:14;;;;;;;8.90;3.78;;;;;;;;;;5012692;28;20209;-26
2023/05/28 07:40:41;;;;;;;4.78;2.85;;;;;;;;;;5005647;28;20299;-28
2023/05/28 07:43:09;;;;;;;7.50;3.30;;;;;;;;;;5008948;28;20204;-25
2023/05/28 07:45:36;;;;;;;7.22;3.58;;;;;;;;;;5004932;28;20224;-28
2023/05/28 07:48:04;;;;;;;7.50;3.15;;;;;;;;;;4996261;28;20214;-28
2023/05/28 07:50:31;;;;;;;5.35;3.33;;;;;;;;;;4999208;28;20199;-26
2023/05/28 07:53:01;;;;;;;6.45;3.30;;;;;;;;;;5012254;28;20221;-27
2023/05/28 07:55:28;;;;;;;5.32;2.80;;;;;;;;;;5009034;28;20244;-27
2023/05/28 07:57:58;;;;;;;9.18;4.00;;;;;;;;;;5004368;28;20210;-28
2023/05/28 08:00:25;;;;;;;7.45;3.70;;;;;;;;;;5005343;28;20222;-30
2023/05/28 08:02:53;;;;;;;6.82;3.00;;;;;;;;;;5003585;28;20206;-28
2023/05/28 08:05:21;;;;;;;6.32;3.05;;;;;;;;;;5000761;28;20225;-25
2023/05/28 08:07:48;;;;;;;7.10;2.90;;;;;;;;;;4993073;28;20216;-26
2023/05/28 08:10:15;;;;;;;4.60;2.80;;;;;;;;;;4999418;28;20208;-29
2023/05/28 08:12:42;;;;;;;5.82;3.15;;;;;;;;;;5007936;28;20236;-28
2023/05/28 08:15:10;;;;;;;8.80;3.80;;;;;;;;;;5015951;28;20228;-27
2023/05/28 08:17:38;;;;;;;6.57;3.10;;;;;;;;;;5005259;28;20220;-26
2023/05/28 08:20:06;;;;;;;9.00;3.42;;;;;;;;;;4996362;28;20209;-28
2023/05/28 08:22:35;;;;;;;7.78;3.45;;;;;;;;;;4996764;28;20209;-26
2023/05/28 08:25:02;;;;;;;6.15;3.33;;;;;;;;;;5000141;28;20209;-27
2023/05/28 08:27:29;;;;;;;5.82;3.20;;;;;;;;;;5005002;28;20207;-26
2023/05/28 08:29:56;;;;;;;5.90;3.13;;;;;;;;;;5013715;28;20213;-26
2023/05/28 08:32:23;;;;;;;6.75;3.15;;;;;;;;;;5004235;28;20224;-26
2023/05/28 08:34:51;;;;;;;7.03;3.28;;;;;;;;;;5012692;28;20209;-30
2023/05/28 08:37:18;;;;;;;6.30;3.53;;;;;;;;;;4994231;28;20241;-26
2023/05/28 08:39:46;;;;;;;6.85;3.22;;;;;;;;;;4992951;28;20214;-27
2023/05/28 08:42:13;;;;;;;5.55;3.15;;;;;;;;;;4992862;28;20216;-31
2023/05/28 08:44:40;;;;;;;8.05;3.47;;;;;;;;;;5010480;28;20209;-27
2023/05/28 08:49:39;;;;;;;5.38;2.95;;;;;;;;;;5026617;28;20253;-35
2023/05/28 08:52:07;;;;;;;8.00;3.35;;;;;;;;;;5034619;28;20243;-33
2023/05/28 08:54:34;;;;;;;9.07;3.53;;;;;;;;;;5035205;28;20206;-31
2023/05/28 08:57:03;;;;;;;7.38;3.15;;;;;;;;;;5027562;28;20232;-35
2023/05/28 08:59:31;;;;;;;7.35;2.92;;;;;;;;;;5022346;28;20201;-31
2023/05/28 09:01:58;;;;;;;5.70;3.15;;;;;;;;;;5018359;28;20205;-30
2023/05/28 09:04:25;;;;;;;7.80;3.47;;;;;;;;;;5022606;28;20205;-33
2023/05/28 09:06:52;;;;;;;4.18;2.90;;;;;;;;;;5031617;28;20234;-32
2023/05/28 09:09:20;;;;;;;5.32;2.92;;;;;;;;;;5025964;28;20204;-33
2023/05/28 09:11:47;;;;;;;6.75;3.05;;;;;;;;;;5030930;28;20235;-35
2023/05/28 09:14:15;;;;;;;5.47;3.03;;;;;;;;;;5014776;28;20209;-35
2023/05/28 09:16:43;;;;;;;4.18;2.55;;;;;;;;;;5015552;28;20234;-35
2023/05/28 09:19:10;;;;;;;8.38;3.10;;;;;;;;;;5026554;28;20203;-34
2023/05/28 09:21:41;;;;;;;9.13;3.22;;;;;;;;;;5019378;28;20623;-32
2023/05/28 09:24:08;;;;;;;5.35;3.30;;;;;;;;;;5013443;28;20197;-35
2023/05/28 09:26:35;;;;;;;8.48;3.13;;;;;;;;;;5029030;28;20227;-34
2023/05/28 09:29:02;;;;;;;6.45;3.00;;;;;;;;;;5026047;28;20215;-32
2023/05/28 09:31:32;;;;;;;7.20;3.30;;;;;;;;;;5024912;28;20223;-33
2023/05/28 09:34:00;;;;;;;6.68;3.05;;;;;;;;;;5031588;28;20235;-34
2023/05/28 09:36:28;;;;;;;5.63;3.28;;;;;;;;;;5014798;28;20315;-31
2023/05/28 09:38:55;;;;;;;7.47;3.53;;;;;;;;;;5017562;28;20215;-33
2023/05/28 09:41:22;;;;;;;6.43;3.40;;;;;;;;;;5019811;28;20202;-30
2023/05/28 09:43:57;;;;;;;7.28;3.25;;;;;;;;;;5014049;28;20208;-33
2023/05/28 09:46:28;;;;;;;6.85;3.15;;;;;;;;;;5015051;28;20309;-30
2023/05/28 09:48:56;;;;;;;5.78;3.05;;;;;;;;;;5023377;28;20268;-35
2023/05/28 09:51:26;;;;;;;7.55;3.00;;;;;;;;;;5021153;28;20214;-34
2023/05/28 09:53:55;;;;;;;4.30;2.60;;;;;;;;;;5016059;28;20273;-33
2023/05/28 09:56:22;;;;;;;7.82;3.40;;;;;;;;;;5022019;28;20222;-33
2023/05/28 09:58:52;;;;;;;5.28;2.70;;;;;;;;;;5023232;28;20208;-32
2023/05/28 10:01:21;;;;;;;4.03;2.50;;;;;;;;;;5026285;28;20205;-34
2023/05/28 10:03:51;;;;;;;4.35;2.45;;;;;;;;;;5022262;28;20203;-33
2023/05/28 10:06:23;;;;;;;4.15;2.92;;;;;;;;;;5034147;28;20224;-32
2023/05/28 10:08:51;;;;;;;8.93;3.25;;;;;;;;;;5033697;28;20195;-36
2023/05/28 10:11:22;;;;;;;4.05;2.95;;;;;;;;;;5028540;28;20217;-32
2023/05/28 10:13:50;;;;;;;4.85;2.90;;;;;;;;;;5017353;28;20204;-33
2023/05/28 10:16:17;;;;;;;4.18;2.70;;;;;;;;;;5026791;28;20215;-34
2023/05/28 10:18:44;;;;;;;6.00;3.00;;;;;;;;;;5025866;28;20206;-30
2023/05/28 10:21:12;;;;;;;6.53;3.33;;;;;;;;;;5034352;28;20203;-32
2023/05/28 10:23:41;;;;;;;9.13;3.40;;;;;;;;;;5034649;28;20211;-32
2023/05/28 10:26:09;;;;;;;5.38;3.17;;;;;;;;;;5029160;28;20223;-34
2023/05/28 10:28:36;;;;;;;5.20;2.90;;;;;;;;;;5021701;28;20205;-34
2023/05/28 10:31:04;;;;;;;6.35;3.47;;;;;;;;;;5027525;28;20294;-34
2023/05/28 10:33:32;;;;;;;7.70;3.25;;;;;;;;;;5021215;28;20233;-32
2023/05/28 10:36:00;;;;;;;5.47;2.90;;;;;;;;;;5025035;28;20222;-32
2023/05/28 10:38:28;;;;;;;7.82;3.08;;;;;;;;;;5033786;28;20202;-31
2023/05/28 10:41:02;;;;;;;6.28;3.40;;;;;;;;;;5028089;28;20216;-31
2023/05/28 10:43:45;;;;;;;6.88;3.20;;;;;;;;;;5025735;28;20199;-34
2023/05/28 10:46:12;;;;;;;6.20;3.13;;;;;;;;;;5015683;28;20696;-31
2023/05/28 10:48:40;;;;;;;3.88;2.85;;;;;;;;;;5030055;28;20216;-34
2023/05/28 10:51:08;;;;;;;7.63;3.08;;;;;;;;;;5013886;28;20270;-33
2023/05/28 10:53:35;;;;;;;6.38;3.15;;;;;;;;;;5012465;28;20227;-34
2023/05/28 10:56:04;;;;;;;6.75;3.20;;;;;;;;;;5016637;28;20227;-32
2023/05/28 10:58:34;;;;;;;6.88;2.95;;;;;;;;;;5020862;28;20219;-33
2023/05/28 11:01:02;;;;;;;6.57;3.42;;;;;;;;;;5012793;28;20203;-33
2023/05/28 11:03:42;;;;;;;5.53;3.13;;;;;;;;;;5029687;28;20252;-35
2023/05/28 11:06:10;;;;;;;6.10;3.15;;;;;;;;;;5021166;28;20246;-33
2023/05/28 11:08:45;;;;;;;9.95;4.00;;;;;;;;;;5012861;28;20210;-33
2023/05/28 11:11:14;;;;;;;7.10;3.78;;;;;;;;;;5021347;28;20201;-35
2023/05/28 11:13:43;;;;;;;7.88;3.75;;;;;;;;;;5015337;28;20223;-33
2023/05/28 11:16:11;;;;;;;6.85;3.03;;;;;;;;;;5013293;28;20281;-32
2023/05/28 11:18:38;;;;;;;5.68;3.40;;;;;;;;;;5019147;28;20202;-33
2023/05/28 11:21:07;;;;;;;9.05;3.40;;;;;;;;;;5114665;22;20244;-32
2023/05/28 11:23:35;;;;;;;10.38;3.40;;;;;;;;;;5026834;28;20203;-33
2023/05/28 11:26:02;;;;;;;4.15;2.78;;;;;;;;;;5024025;28;20254;-32
2023/05/28 11:28:30;;;;;;;5.45;3.65;;;;;;;;;;5029289;28;20259;-30
2023/05/28 11:30:58;;;;;;;7.68;3.30;;;;;;;;;;5027044;28;20296;-35
2023/05/28 11:33:28;;;;;;;4.57;3.00;;;;;;;;;;5028113;28;20223;-32
2023/05/28 11:36:00;;;;;;;10.35;4.22;;;;;;;;;;5032419;28;20227;-32
2023/05/28 11:38:27;;;;;;;7.45;3.72;;;;;;;;;;5032672;28;20214;-33
2023/05/28 11:41:01;;;;;;;6.50;3.58;;;;;;;;;;5020124;28;20298;-33
2023/05/28 11:43:30;;;;;;;5.85;3.28;;;;;;;;;;5031738;28;20657;-35
2023/05/28 11:45:58;;;;;;;7.95;3.40;;;;;;;;;;5030499;28;20220;-32
2023/05/28 11:48:27;;;;;;;4.07;3.22;;;;;;;;;;5031761;28;20197;-32
2023/05/28 11:51:01;;;;;;;7.35;3.45;;;;;;;;;;5035293;28;20265;-36
2023/05/28 11:53:41;;;;;;;6.15;3.40;;;;;;;;;;5034954;28;20232;-32
2023/05/28 11:56:08;;;;;;;9.02;3.45;;;;;;;;;;5025741;28;20218;-31
2023/05/28 11:58:40;;;;;;;4.88;3.33;;;;;;;;;;5022643;28;20199;-32
2023/05/28 12:01:07;;;;;;;7.30;3.15;;;;;;;;;;5024537;28;20208;-33
2023/05/28 12:03:34;;;;;;;4.25;2.83;;;;;;;;;;5030443;28;20204;-35
2023/05/28 12:06:02;;;;;;;8.57;3.30;;;;;;;;;;5034157;28;20227;-33
2023/05/28 12:08:29;;;;;;;3.72;2.80;;;;;;;;;;5033195;28;20225;-34
2023/05/28 12:11:01;;;;;;;6.18;3.33;;;;;;;;;;5029366;28;20230;-34
2023/05/28 12:13:32;;;;;;;10.07;3.40;;;;;;;;;;5023073;28;20228;-32
2023/05/28 12:16:07;;;;;;;5.13;3.42;;;;;;;;;;5025931;28;20739;-34
2023/05/28 12:18:34;;;;;;;6.90;3.30;;;;;;;;;;5029308;28;20203;-32
2023/05/28 12:21:02;;;;;;;6.57;3.58;;;;;;;;;;5032719;28;20216;-33
2023/05/28 12:23:29;;;;;;;6.03;3.30;;;;;;;;;;5032563;28;20204;-33
2023/05/28 12:25:56;;;;;;;6.60;3.28;;;;;;;;;;5018762;28;20694;-32
2023/05/28 12:28:24;;;;;;;8.13;3.65;;;;;;;;;;5031693;28;20204;-32
2023/05/28 12:30:52;;;;;;;6.07;3.97;;;;;;;;;;5025062;28;20208;-33
2023/05/28 12:33:21;;;;;;;7.05;3.50;;;;;;;;;;5030543;28;20311;-32
2023/05/28 12:35:48;;;;;;;5.88;3.80;;;;;;;;;;5034772;28;20239;-31
2023/05/28 12:38:15;;;;;;;6.50;3.30;;;;;;;;;;5035463;28;20223;-35
2023/05/28 12:40:42;;;;;;;5.43;2.97;;;;;;;;;;5032412;28;20212;-30
2023/05/28 12:43:10;;;;;;;5.18;3.10;;;;;;;;;;5035120;28;20197;-34
2023/05/28 12:45:37;;;;;;;6.05;3.33;;;;;;;;;;5030769;28;20258;-30
2023/05/28 12:48:04;;;;;;;5.40;3.17;;;;;;;;;;5024338;28;20270;-33
2023/05/28 12:50:33;;;;;;;4.85;2.72;;;;;;;;;;5031839;28;20200;-30
2023/05/28 12:53:02;;;;;;;5.78;3.10;;;;;;;;;;5030011;28;20228;-31
2023/05/28 12:55:30;;;;;;;7.28;3.65;;;;;;;;;;5026618;28;20228;-33
2023/05/28 12:57:57;;;;;;;3.88;3.03;;;;;;;;;;5031245;28;20212;-34
2023/05/28 13:00:25;;;;;;;5.25;3.30;;;;;;;;;;5030926;28;20215;-34
2023/05/28 13:02:52;;;;;;;7.15;3.17;;;;;;;;;;5022000;28;20205;-31
2023/05/28 13:05:19;;;;;;;5.63;2.65;;;;;;;;;;5031548;28;20226;-34
2023/05/28 13:07:47;;;;;;;7.22;3.15;;;;;;;;;;5031710;28;20228;-31
2023/05/28 13:10:15;;;;;;;4.43;3.10;;;;;;;;;;5018997;28;20200;-32
2023/05/28 13:12:42;;;;;;;5.95;3.40;;;;;;;;;;5020200;28;20229;-31
2023/05/28 13:15:09;;;;;;;7.97;2.97;;;;;;;;;;5031847;28;20216;-33
2023/05/28 13:17:36;;;;;;;5.80;3.22;;;;;;;;;;5021995;28;20219;-32
2023/05/28 13:20:07;;;;;;;4.85;3.05;;;;;;;;;;5030218;28;20208;-31
2023/05/28 13:22:35;;;;;;;4.38;3.03;;;;;;;;;;5032467;28;20208;-32
2023/05/28 13:25:03;;;;;;;5.63;3.45;;;;;;;;;;5031906;28;20211;-33
2023/05/28 13:27:31;;;;;;;3.17;2.85;;;;;;;;;;5027558;28;20206;-31
2023/05/28 13:29:58;;;;;;;6.53;3.00;;;;;;;;;;5031836;28;20272;-34
2023/05/28 13:32:25;;;;;;;5.80;3.50;;;;;;;;;;5020142;28;20205;-33
2023/05/28 13:34:52;;;;;;;4.68;2.88;;;;;;;;;;5029025;28;20228;-32
2023/05/28 13:37:19;;;;;;;5.82;3.03;;;;;;;;;;5032008;28;20220;-32
2023/05/28 13:39:47;;;;;;;4.22;2.67;;;;;;;;;;5022807;28;20212;-32
2023/05/28 13:42:19;;;;;;;7.28;3.30;;;;;;;;;;5024252;28;20275;-33
2023/05/28 13:44:46;;;;;;;5.65;2.97;;;;;;;;;;5034185;28;20220;-30
2023/05/28 13:47:13;;;;;;;4.20;2.80;;;;;;;;;;5028813;28;20222;-33
2023/05/28 13:49:41;;;;;;;5.47;3.20;;;;;;;;;;5034419;28;20220;-34
2023/05/28 13:52:08;;;;;;;4.55;2.97;;;;;;;;;;5034280;28;20263;-31
2023/05/28 13:54:36;;;;;;;6.55;3.28;;;;;;;;;;5029305;28;20268;-31
2023/05/28 13:57:03;;;;;;;4.85;2.80;;;;;;;;;;5022759;28;20292;-35
2023/05/28 13:59:31;;;;;;;4.25;3.10;;;;;;;;;;5032690;28;20201;-31
2023/05/28 14:01:58;;;;;;;5.75;2.78;;;;;;;;;;5023290;28;20213;-35
2023/05/28 14:04:26;;;;;;;4.35;3.28;;;;;;;;;;5030866;28;20264;-31
2023/05/28 14:06:53;;;;;;;4.68;2.83;;;;;;;;;;5029457;28;20225;-33
2023/05/28 14:09:20;;;;;;;3.70;3.13;;;;;;;;;;5032028;28;20682;-34
2023/05/28 14:11:47;;;;;;;4.28;2.75;;;;;;;;;;5027063;28;20288;-30
2023/05/28 14:14:14;;;;;;;3.83;2.70;;;;;;;;;;5033393;28;20228;-36
2023/05/28 14:16:43;;;;;;;3.90;2.97;;;;;;;;;;5025820;28;20323;-29
2023/05/28 14:19:10;;;;;;;4.43;2.92;;;;;;;;;;5031248;28;20200;-33
2023/05/28 14:21:37;;;;;;;7.18;3.50;;;;;;;;;;5033836;28;20220;-32
2023/05/28 14:24:04;;;;;;;4.68;2.58;;;;;;;;;;5033281;28;20207;-35
2023/05/28 14:26:31;;;;;;;5.70;3.28;;;;;;;;;;5025602;28;20236;-32
2023/05/28 14:28:58;;;;;;;3.63;2.88;;;;;;;;;;5030877;28;20210;-32
2023/05/28 14:31:25;;;;;;;6.07;3.20;;;;;;;;;;5027312;28;20211;-31
2023/05/28 14:33:54;;;;;;;4.95;3.00;;;;;;;;;;5030605;28;20232;-35
2023/05/28 14:36:21;;;;;;;5.65;2.80;;;;;;;;;;5033113;28;20224;-30
2023/05/28 14:38:48;;;;;;;4.13;2.75;;;;;;;;;;5033808;28;20211;-30
2023/05/28 14:41:15;;;;;;;4.82;2.80;;;;;;;;;;5026590;28;20203;-34
2023/05/28 14:43:42;;;;;;;6.18;2.80;;;;;;;;;;5029235;28;20212;-31
2023/05/28 14:46:09;;;;;;;4.60;2.80;;;;;;;;;;5027352;28;20226;-33
2023/05/28 14:48:36;;;;;;;4.10;2.72;;;;;;;;;;5025875;28;20211;-33
2023/05/28 14:51:06;;;;;;;4.22;3.03;;;;;;;;;;5016774;28;20211;-32
2023/05/28 14:53:34;;;;;;;6.78;3.28;;;;;;;;;;5127982;22;20236;-28
2023/05/28 14:56:01;;;;;;;9.07;3.65;;;;;;;;;;5050347;28;20232;-27
2023/05/28 14:58:29;;;;;;;7.15;3.67;;;;;;;;;;5052927;28;20208;-25